createdAt,value
2019-01-26T00:00:46.257Z,1005.96
2019-01-26T00:01:55.674Z,1005.95
2019-01-26T00:03:05.242Z,1005.94
2019-01-26T00:04:14.449Z,1005.89
2019-01-26T00:05:24.339Z,1005.87
2019-01-26T00:06:33.677Z,1005.86
2019-01-26T00:07:43.006Z,1005.89
2019-01-26T00:08:53.827Z,1005.86
2019-01-26T00:10:03.686Z,1005.87
2019-01-26T00:11:13.890Z,1005.83
2019-01-26T00:12:23.297Z,1005.78
2019-01-26T00:13:33.005Z,1005.75
2019-01-26T00:14:42.075Z,1005.71
2019-01-26T00:15:51.413Z,1005.63
2019-01-26T00:17:00.207Z,1005.67
2019-01-26T00:18:09.433Z,1005.65
2019-01-26T00:19:19.231Z,1005.71
2019-01-26T00:20:29.538Z,1005.79
2019-01-26T00:21:44.048Z,1005.74
2019-01-26T00:22:54.268Z,1005.77
2019-01-26T00:24:03.950Z,1005.75
2019-01-26T00:25:13.587Z,1005.74
2019-01-26T00:26:22.722Z,1005.74
2019-01-26T00:27:31.782Z,1005.74
2019-01-26T00:28:40.646Z,1005.67
2019-01-26T00:29:50.026Z,1005.67
2019-01-26T00:30:59.368Z,1005.68
2019-01-26T00:32:08.775Z,1005.67
2019-01-26T00:33:18.330Z,1005.72
2019-01-26T00:34:27.413Z,1005.7
2019-01-26T00:35:36.861Z,1005.74
2019-01-26T00:36:46.709Z,1005.74
2019-01-26T00:37:55.858Z,1005.72
2019-01-26T00:39:05.330Z,1005.7
2019-01-26T00:40:14.189Z,1005.68
2019-01-26T00:41:23.366Z,1005.67
2019-01-26T00:42:32.785Z,1005.68
2019-01-26T00:43:41.963Z,1005.55
2019-01-26T00:44:51.359Z,1005.57
2019-01-26T00:46:00.991Z,1005.56
2019-01-26T00:47:10.846Z,1005.54
2019-01-26T00:48:20.337Z,1005.56
2019-01-26T00:49:29.723Z,1005.55
2019-01-26T00:50:39.313Z,1005.54
2019-01-26T00:51:48.679Z,1005.55
2019-01-26T00:52:58.156Z,1005.55
2019-01-26T00:54:06.980Z,1005.57
2019-01-26T00:55:16.623Z,1005.61
2019-01-26T00:56:25.702Z,1005.55
2019-01-26T00:57:35.470Z,1005.59
2019-01-26T00:58:44.612Z,1005.61
2019-01-26T00:59:54.028Z,1005.61
2019-01-26T01:01:03.661Z,1005.59
2019-01-26T01:02:13.588Z,1005.61
2019-01-26T01:03:23.394Z,1005.59
2019-01-26T01:04:33.467Z,1005.56
2019-01-26T01:05:42.947Z,1005.52
2019-01-26T01:06:52.534Z,1005.54
2019-01-26T01:08:02.159Z,1005.56
2019-01-26T01:09:10.979Z,1005.5
2019-01-26T01:10:20.582Z,1005.61
2019-01-26T01:11:30.186Z,1005.61
2019-01-26T01:12:39.260Z,1005.55
2019-01-26T01:13:48.317Z,1005.53
2019-01-26T01:14:57.673Z,1005.53
2019-01-26T01:16:07.032Z,1005.57
2019-01-26T01:17:16.588Z,1005.59
2019-01-26T01:18:26.222Z,1005.58
2019-01-26T01:19:35.637Z,1005.57
2019-01-26T01:20:45.351Z,1005.55
2019-01-26T01:21:55.439Z,1005.53
2019-01-26T01:23:04.995Z,1005.52
2019-01-26T01:24:14.330Z,1005.57
2019-01-26T01:25:24.194Z,1005.52
2019-01-26T01:26:33.303Z,1005.5
2019-01-26T01:27:42.919Z,1005.47
2019-01-26T01:28:51.999Z,1005.45
2019-01-26T01:30:01.069Z,1005.5
2019-01-26T01:31:10.899Z,1005.44
2019-01-26T01:32:20.459Z,1005.42
2019-01-26T01:33:29.998Z,1005.45
2019-01-26T01:34:39.047Z,1005.48
2019-01-26T01:35:48.822Z,1005.43
2019-01-26T01:36:57.963Z,1005.47
2019-01-26T01:38:07.206Z,1005.47
2019-01-26T01:39:17.118Z,1005.51
2019-01-26T01:40:26.536Z,1005.46
2019-01-26T01:41:35.782Z,1005.44
2019-01-26T01:42:45.651Z,1005.43
2019-01-26T01:43:54.737Z,1005.44
2019-01-26T01:45:04.668Z,1005.43
2019-01-26T01:46:14.128Z,1005.39
2019-01-26T01:47:23.551Z,1005.36
2019-01-26T01:48:33.154Z,1005.32
2019-01-26T01:49:42.855Z,1005.3
2019-01-26T01:50:51.983Z,1005.28
2019-01-26T01:52:01.249Z,1005.28
2019-01-26T01:53:10.084Z,1005.27
2019-01-26T01:54:19.232Z,1005.29
2019-01-26T01:55:28.833Z,1005.3
2019-01-26T01:56:38.240Z,1005.3
2019-01-26T01:57:47.793Z,1005.29
2019-01-26T01:58:57.354Z,1005.27
2019-01-26T02:00:06.633Z,1005.28
2019-01-26T02:01:15.975Z,1005.26
2019-01-26T02:02:25.068Z,1005.24
2019-01-26T02:03:34.526Z,1005.24
2019-01-26T02:04:44.132Z,1005.22
2019-01-26T02:05:53.299Z,1005.2
2019-01-26T02:07:02.867Z,1005.16
2019-01-26T02:08:12.457Z,1005.15
2019-01-26T02:09:21.747Z,1005.16
2019-01-26T02:10:30.811Z,1005.13
2019-01-26T02:11:40.479Z,1005.14
2019-01-26T02:12:50.258Z,1005.09
2019-01-26T02:13:59.656Z,1005.11
2019-01-26T02:15:08.920Z,1005.08
2019-01-26T02:16:18.538Z,1005.04
2019-01-26T02:17:27.632Z,1004.99
2019-01-26T02:18:37.023Z,1004.95
2019-01-26T02:19:46.381Z,1004.99
2019-01-26T02:20:55.921Z,1005
2019-01-26T02:22:05.581Z,1004.95
2019-01-26T02:23:15.134Z,1004.89
2019-01-26T02:24:24.201Z,1004.93
2019-01-26T02:25:33.041Z,1004.93
2019-01-26T02:26:42.341Z,1004.94
2019-01-26T02:27:51.693Z,1004.97
2019-01-26T02:29:00.828Z,1004.97
2019-01-26T02:30:10.241Z,1005.01
2019-01-26T02:31:19.609Z,1004.98
2019-01-26T02:32:29.007Z,1005.01
2019-01-26T02:33:38.706Z,1005.03
2019-01-26T02:34:47.794Z,1005.03
2019-01-26T02:35:57.030Z,1005.02
2019-01-26T02:37:06.422Z,1005.01
2019-01-26T02:38:16.216Z,1005.03
2019-01-26T02:39:25.863Z,1005.06
2019-01-26T02:40:35.587Z,1005.06
2019-01-26T02:41:45.277Z,1005.09
2019-01-26T02:42:55.299Z,1005.09
2019-01-26T02:44:05.192Z,1005.03
2019-01-26T02:45:14.013Z,1005.08
2019-01-26T02:46:23.781Z,1005.07
2019-01-26T02:47:33.106Z,1005.04
2019-01-26T02:48:42.916Z,1005.06
2019-01-26T02:49:52.622Z,1005.03
2019-01-26T02:51:02.274Z,1005.02
2019-01-26T02:52:11.682Z,1005.01
2019-01-26T02:53:21.327Z,1005.01
2019-01-26T02:54:30.319Z,1005.01
2019-01-26T02:55:39.467Z,1005.04
2019-01-26T02:56:49.221Z,1005.09
2019-01-26T02:57:58.899Z,1005.05
2019-01-26T02:59:08.558Z,1005.04
2019-01-26T03:00:18.117Z,1005.09
2019-01-26T03:01:27.195Z,1005.06
2019-01-26T03:02:36.657Z,1005.06
2019-01-26T03:03:46.336Z,1004.98
2019-01-26T03:04:56.037Z,1004.95
2019-01-26T03:06:05.988Z,1004.96
2019-01-26T03:07:17.021Z,1004.95
2019-01-26T03:08:26.161Z,1004.98
2019-01-26T03:09:35.799Z,1004.97
2019-01-26T03:10:45.372Z,1004.98
2019-01-26T03:11:54.244Z,1004.97
2019-01-26T03:13:03.701Z,1005
2019-01-26T03:14:13.100Z,1005.03
2019-01-26T03:15:23.028Z,1004.94
2019-01-26T03:16:32.615Z,1004.93
2019-01-26T03:17:41.998Z,1004.93
2019-01-26T03:18:51.900Z,1004.95
2019-01-26T03:20:01.115Z,1004.95
2019-01-26T03:21:10.722Z,1004.94
2019-01-26T03:22:19.869Z,1004.87
2019-01-26T03:23:29.381Z,1004.92
2019-01-26T03:24:38.995Z,1004.9
2019-01-26T03:25:48.291Z,1004.87
2019-01-26T03:26:57.609Z,1004.92
2019-01-26T03:28:06.400Z,1004.89
2019-01-26T03:29:16.009Z,1004.82
2019-01-26T03:30:25.912Z,1004.85
2019-01-26T03:31:35.305Z,1004.78
2019-01-26T03:32:45.258Z,1004.83
2019-01-26T03:33:55.301Z,1004.81
2019-01-26T03:35:04.937Z,1004.82
2019-01-26T03:36:14.328Z,1004.85
2019-01-26T03:37:23.653Z,1004.85
2019-01-26T03:38:33.075Z,1004.82
2019-01-26T03:39:42.977Z,1004.78
2019-01-26T03:40:52.617Z,1004.76
2019-01-26T03:42:02.046Z,1004.75
2019-01-26T03:43:11.650Z,1004.75
2019-01-26T03:44:21.385Z,1004.7
2019-01-26T03:45:31.224Z,1004.72
2019-01-26T03:46:40.546Z,1004.68
2019-01-26T03:47:49.875Z,1004.63
2019-01-26T03:48:59.273Z,1004.62
2019-01-26T03:50:08.848Z,1004.62
2019-01-26T03:51:18.463Z,1004.68
2019-01-26T03:52:28.065Z,1004.71
2019-01-26T03:53:37.147Z,1004.68
2019-01-26T03:54:46.782Z,1004.72
2019-01-26T03:55:56.263Z,1004.69
2019-01-26T03:57:05.091Z,1004.71
2019-01-26T03:58:14.708Z,1004.75
2019-01-26T03:59:24.193Z,1004.76
2019-01-26T04:00:33.839Z,1004.78
2019-01-26T04:01:43.293Z,1004.73
2019-01-26T04:02:52.956Z,1004.77
2019-01-26T04:04:02.377Z,1004.8
2019-01-26T04:05:12.049Z,1004.74
2019-01-26T04:06:22.047Z,1004.77
2019-01-26T04:07:31.369Z,1004.78
2019-01-26T04:08:40.974Z,1004.73
2019-01-26T04:09:50.567Z,1004.7
2019-01-26T04:10:59.630Z,1004.68
2019-01-26T04:12:09.047Z,1004.64
2019-01-26T04:13:18.657Z,1004.68
2019-01-26T04:14:28.352Z,1004.61
2019-01-26T04:15:38.218Z,1004.62
2019-01-26T04:16:47.355Z,1004.58
2019-01-26T04:17:56.719Z,1004.57
2019-01-26T04:19:06.267Z,1004.57
2019-01-26T04:20:15.618Z,1004.54
2019-01-26T04:21:24.950Z,1004.52
2019-01-26T04:22:34.595Z,1004.52
2019-01-26T04:23:43.925Z,1004.58
2019-01-26T04:24:54.020Z,1004.57
2019-01-26T04:26:03.866Z,1004.55
2019-01-26T04:27:13.830Z,1004.58
2019-01-26T04:28:23.126Z,1004.54
2019-01-26T04:29:32.736Z,1004.49
2019-01-26T04:30:41.511Z,1004.54
2019-01-26T04:31:50.622Z,1004.5
2019-01-26T04:32:59.901Z,1004.51
2019-01-26T04:34:09.821Z,1004.45
2019-01-26T04:35:19.411Z,1004.5
2019-01-26T04:36:28.552Z,1004.48
2019-01-26T04:37:38.146Z,1004.51
2019-01-26T04:38:47.191Z,1004.47
2019-01-26T04:39:56.482Z,1004.49
2019-01-26T04:41:06.049Z,1004.45
2019-01-26T04:42:15.561Z,1004.43
2019-01-26T04:43:25.042Z,1004.46
2019-01-26T04:44:34.293Z,1004.48
2019-01-26T04:45:43.555Z,1004.45
2019-01-26T04:46:52.341Z,1004.46
2019-01-26T04:48:01.603Z,1004.46
2019-01-26T04:49:10.875Z,1004.44
2019-01-26T04:50:20.686Z,1004.48
2019-01-26T04:51:29.915Z,1004.54
2019-01-26T04:52:38.942Z,1004.53
2019-01-26T04:53:48.726Z,1004.51
2019-01-26T04:54:58.314Z,1004.47
2019-01-26T04:56:07.616Z,1004.46
2019-01-26T04:57:16.942Z,1004.42
2019-01-26T04:58:26.258Z,1004.49
2019-01-26T04:59:35.582Z,1004.44
2019-01-26T05:00:44.742Z,1004.44
2019-01-26T05:01:54.054Z,1004.46
2019-01-26T05:03:03.119Z,1004.39
2019-01-26T05:04:11.995Z,1004.5
2019-01-26T05:05:21.324Z,1004.49
2019-01-26T05:06:30.954Z,1004.42
2019-01-26T05:07:39.972Z,1004.47
2019-01-26T05:08:49.612Z,1004.49
2019-01-26T05:09:58.780Z,1004.45
2019-01-26T05:11:07.893Z,1004.49
2019-01-26T05:12:17.740Z,1004.39
2019-01-26T05:13:27.056Z,1004.41
2019-01-26T05:14:36.369Z,1004.44
2019-01-26T05:15:46.110Z,1004.51
2019-01-26T05:16:55.489Z,1004.52
2019-01-26T05:18:04.969Z,1004.46
2019-01-26T05:19:13.814Z,1004.46
2019-01-26T05:20:22.891Z,1004.52
2019-01-26T05:21:32.582Z,1004.47
2019-01-26T05:22:42.203Z,1004.51
2019-01-26T05:23:51.620Z,1004.41
2019-01-26T05:25:00.944Z,1004.49
2019-01-26T05:26:11.033Z,1004.48
2019-01-26T05:27:20.639Z,1004.51
2019-01-26T05:28:29.721Z,1004.46
2019-01-26T05:29:39.590Z,1004.43
2019-01-26T05:30:48.912Z,1004.44
2019-01-26T05:31:58.532Z,1004.41
2019-01-26T05:33:07.626Z,1004.44
2019-01-26T05:34:17.021Z,1004.4
2019-01-26T05:35:26.556Z,1004.4
2019-01-26T05:36:36.478Z,1004.35
2019-01-26T05:37:46.117Z,1004.41
2019-01-26T05:38:56.064Z,1004.34
2019-01-26T05:40:05.426Z,1004.36
2019-01-26T05:41:14.305Z,1004.38
2019-01-26T05:42:24.073Z,1004.34
2019-01-26T05:43:33.597Z,1004.31
2019-01-26T05:44:43.029Z,1004.29
2019-01-26T05:45:52.689Z,1004.22
2019-01-26T05:47:02.494Z,1004.26
2019-01-26T05:48:11.812Z,1004.24
2019-01-26T05:49:21.218Z,1004.21
2019-01-26T05:50:30.570Z,1004.14
2019-01-26T05:51:39.599Z,1004.08
2019-01-26T05:52:48.708Z,1004.14
2019-01-26T05:53:58.407Z,1004.11
2019-01-26T05:55:08.057Z,1004.1
2019-01-26T05:56:17.481Z,1004.12
2019-01-26T05:57:27.171Z,1004.11
2019-01-26T05:58:37.251Z,1004.08
2019-01-26T05:59:47.123Z,1004.1
2019-01-26T06:00:56.231Z,1004.16
2019-01-26T06:02:05.864Z,1004.06
2019-01-26T06:03:15.220Z,1004.03
2019-01-26T06:04:24.323Z,1004.01
2019-01-26T06:05:33.679Z,1004.11
2019-01-26T06:06:43.312Z,1004
2019-01-26T06:07:52.399Z,1004.08
2019-01-26T06:09:01.726Z,1004.03
2019-01-26T06:10:11.031Z,1004.08
2019-01-26T06:11:20.761Z,1004.06
2019-01-26T06:12:30.706Z,1004.06
2019-01-26T06:13:40.330Z,1004.13
2019-01-26T06:14:49.460Z,1004.08
2019-01-26T06:15:59.025Z,1004.1
2019-01-26T06:17:08.576Z,1004.11
2019-01-26T06:18:18.169Z,1004.12
2019-01-26T06:19:27.493Z,1004.12
2019-01-26T06:20:36.823Z,1004.05
2019-01-26T06:21:45.609Z,1004.09
2019-01-26T06:22:55.514Z,1004.07
2019-01-26T06:24:04.359Z,1004.06
2019-01-26T06:25:13.650Z,1004.12
2019-01-26T06:26:23.636Z,1004.05
2019-01-26T06:27:32.743Z,1004.11
2019-01-26T06:28:42.281Z,1004.08
2019-01-26T06:29:52.085Z,1004.1
2019-01-26T06:31:01.949Z,1004.1
2019-01-26T06:32:11.242Z,1004.09
2019-01-26T06:33:21.531Z,1004.06
2019-01-26T06:34:30.856Z,1004.09
2019-01-26T06:35:40.145Z,1004.06
2019-01-26T06:36:49.672Z,1004.11
2019-01-26T06:37:58.757Z,1004.15
2019-01-26T06:39:08.084Z,1004.2
2019-01-26T06:40:17.580Z,1004.22
2019-01-26T06:41:27.133Z,1004.16
2019-01-26T06:42:36.696Z,1004.16
2019-01-26T06:43:46.581Z,1004.13
2019-01-26T06:44:56.218Z,1004.11
2019-01-26T06:46:05.332Z,1004.08
2019-01-26T06:47:14.198Z,1004.08
2019-01-26T06:48:23.456Z,1004.09
2019-01-26T06:49:32.300Z,1004.12
2019-01-26T06:50:41.744Z,1004.09
2019-01-26T06:51:51.055Z,1004.11
2019-01-26T06:53:00.375Z,1004.09
2019-01-26T06:54:09.967Z,1004.11
2019-01-26T06:55:19.084Z,1004.12
2019-01-26T06:56:28.541Z,1004.13
2019-01-26T06:57:38.493Z,1004.14
2019-01-26T06:58:47.759Z,1004.09
2019-01-26T06:59:57.828Z,1004.14
2019-01-26T07:01:07.363Z,1004.07
2019-01-26T07:02:16.743Z,1004.04
2019-01-26T07:03:25.940Z,1004.02
2019-01-26T07:04:35.089Z,1004.04
2019-01-26T07:05:44.834Z,1004.05
2019-01-26T07:06:53.887Z,1004.06
2019-01-26T07:08:03.456Z,1004.09
2019-01-26T07:09:12.226Z,1004.12
2019-01-26T07:10:21.051Z,1004.13
2019-01-26T07:11:30.184Z,1004.12
2019-01-26T07:12:38.996Z,1004.1
2019-01-26T07:13:48.842Z,1004.11
2019-01-26T07:14:58.679Z,1004.11
2019-01-26T07:16:08.266Z,1004.1
2019-01-26T07:17:17.569Z,1004.12
2019-01-26T07:18:26.604Z,1004.13
2019-01-26T07:19:36.459Z,1004.15
2019-01-26T07:20:45.792Z,1004.15
2019-01-26T07:21:55.096Z,1004.14
2019-01-26T07:23:04.682Z,1004.18
2019-01-26T07:24:14.059Z,1004.15
2019-01-26T07:25:23.168Z,1004.15
2019-01-26T07:26:32.830Z,1004.14
2019-01-26T07:27:42.355Z,1004.11
2019-01-26T07:28:51.203Z,1004.14
2019-01-26T07:30:00.506Z,1004.14
2019-01-26T07:31:09.904Z,1004.11
2019-01-26T07:32:19.120Z,1004.13
2019-01-26T07:33:28.450Z,1004.17
2019-01-26T07:34:37.733Z,1004.2
2019-01-26T07:35:47.294Z,1004.21
2019-01-26T07:36:56.830Z,1004.17
2019-01-26T07:38:05.771Z,1004.2
2019-01-26T07:39:21.257Z,1004.21
2019-01-26T07:40:30.402Z,1004.21
2019-01-26T07:41:39.940Z,1004.22
2019-01-26T07:42:48.967Z,1004.27
2019-01-26T07:43:58.401Z,1004.23
2019-01-26T07:45:07.704Z,1004.25
2019-01-26T07:46:17.296Z,1004.24
2019-01-26T07:47:26.895Z,1004.28
2019-01-26T07:48:36.206Z,1004.28
2019-01-26T07:49:45.210Z,1004.28
2019-01-26T07:50:54.530Z,1004.22
2019-01-26T07:52:04.063Z,1004.21
2019-01-26T07:53:13.375Z,1004.17
2019-01-26T07:54:22.582Z,1004.17
2019-01-26T07:55:31.906Z,1004.16
2019-01-26T07:56:41.225Z,1004.15
2019-01-26T07:57:50.396Z,1004.09
2019-01-26T07:58:59.933Z,1004.15
2019-01-26T08:00:09.340Z,1004.08
2019-01-26T08:01:18.414Z,1004.09
2019-01-26T08:02:27.251Z,1004.07
2019-01-26T08:03:36.395Z,1004.12
2019-01-26T08:04:45.482Z,1004.16
2019-01-26T08:05:54.806Z,1004.12
2019-01-26T08:07:03.838Z,1004.12
2019-01-26T08:08:12.980Z,1004.13
2019-01-26T08:09:22.070Z,1004.15
2019-01-26T08:10:31.715Z,1004.16
2019-01-26T08:11:42.482Z,1004.1
2019-01-26T08:12:52.107Z,1004.11
2019-01-26T08:14:01.446Z,1004.05
2019-01-26T08:15:10.560Z,1004.04
2019-01-26T08:16:19.609Z,1004.07
2019-01-26T08:17:28.652Z,1004.11
2019-01-26T08:18:37.837Z,1004.1
2019-01-26T08:19:47.172Z,1004.07
2019-01-26T08:20:56.757Z,1004.06
2019-01-26T08:22:05.957Z,1004.05
2019-01-26T08:23:15.341Z,1004.08
2019-01-26T08:24:24.507Z,1004.06
2019-01-26T08:25:34.045Z,1004.11
2019-01-26T08:26:43.402Z,1004.08
2019-01-26T08:27:52.728Z,1004.1
2019-01-26T08:29:02.262Z,1004.04
2019-01-26T08:30:11.301Z,1004.08
2019-01-26T08:31:20.447Z,1004.1
2019-01-26T08:32:29.756Z,1004.09
2019-01-26T08:33:39.074Z,1004.03
2019-01-26T08:34:48.643Z,1004.1
2019-01-26T08:35:58.230Z,1004.03
2019-01-26T08:37:07.530Z,1004.04
2019-01-26T08:38:17.092Z,1004.05
2019-01-26T08:39:26.390Z,1004
2019-01-26T08:40:35.735Z,1004.03
2019-01-26T08:41:45.036Z,1003.95
2019-01-26T08:42:54.746Z,1003.96
2019-01-26T08:44:04.312Z,1003.96
2019-01-26T08:45:13.335Z,1003.98
2019-01-26T08:46:22.412Z,1003.96
2019-01-26T08:47:31.264Z,1004
2019-01-26T08:48:41.053Z,1003.93
2019-01-26T08:49:50.390Z,1003.92
2019-01-26T08:50:59.958Z,1003.93
2019-01-26T08:52:09.094Z,1003.94
2019-01-26T08:53:18.723Z,1003.87
2019-01-26T08:54:28.310Z,1003.85
2019-01-26T08:55:37.899Z,1003.8
2019-01-26T08:56:47.219Z,1003.77
2019-01-26T08:57:56.390Z,1003.85
2019-01-26T08:59:05.519Z,1003.73
2019-01-26T09:00:15.151Z,1003.82
2019-01-26T09:01:24.457Z,1003.8
2019-01-26T09:02:34.002Z,1003.8
2019-01-26T09:03:43.568Z,1003.84
2019-01-26T09:04:53.307Z,1003.82
2019-01-26T09:06:03.162Z,1003.87
2019-01-26T09:07:12.576Z,1003.85
2019-01-26T09:08:21.621Z,1003.79
2019-01-26T09:09:30.607Z,1003.79
2019-01-26T09:10:39.907Z,1003.79
2019-01-26T09:11:49.771Z,1003.78
2019-01-26T09:12:59.404Z,1003.77
2019-01-26T09:14:08.764Z,1003.76
2019-01-26T09:15:18.120Z,1003.74
2019-01-26T09:16:27.231Z,1003.79
2019-01-26T09:17:36.584Z,1003.71
2019-01-26T09:18:45.634Z,1003.76
2019-01-26T09:19:55.203Z,1003.79
2019-01-26T09:21:05.142Z,1003.77
2019-01-26T09:22:14.036Z,1003.72
2019-01-26T09:23:23.028Z,1003.68
2019-01-26T09:24:32.295Z,1003.8
2019-01-26T09:25:41.633Z,1003.77
2019-01-26T09:26:50.691Z,1003.72
2019-01-26T09:28:00.095Z,1003.71
2019-01-26T09:29:09.414Z,1003.7
2019-01-26T09:30:18.983Z,1003.71
2019-01-26T09:31:28.319Z,1003.7
2019-01-26T09:32:37.834Z,1003.72
2019-01-26T09:33:46.852Z,1003.71
2019-01-26T09:34:55.628Z,1003.69
2019-01-26T09:36:04.975Z,1003.74
2019-01-26T09:37:14.742Z,1003.74
2019-01-26T09:38:24.037Z,1003.74
2019-01-26T09:39:33.330Z,1003.69
2019-01-26T09:40:42.422Z,1003.68
2019-01-26T09:41:51.904Z,1003.69
2019-01-26T09:43:00.650Z,1003.65
2019-01-26T09:44:09.974Z,1003.74
2019-01-26T09:45:19.212Z,1003.63
2019-01-26T09:46:28.790Z,1003.64
2019-01-26T09:47:38.351Z,1003.66
2019-01-26T09:48:47.881Z,1003.68
2019-01-26T09:49:57.203Z,1003.76
2019-01-26T09:51:06.214Z,1003.69
2019-01-26T09:52:15.521Z,1003.78
2019-01-26T09:53:24.851Z,1003.75
2019-01-26T09:54:33.686Z,1003.81
2019-01-26T09:55:43.261Z,1003.87
2019-01-26T09:56:52.550Z,1003.88
2019-01-26T09:58:01.630Z,1003.98
2019-01-26T09:59:10.726Z,1003.97
2019-01-26T10:00:20.915Z,1003.95
2019-01-26T10:01:30.211Z,1003.91
2019-01-26T10:02:39.490Z,1003.95
2019-01-26T10:03:49.443Z,1003.82
2019-01-26T10:04:59.111Z,1003.88
2019-01-26T10:06:08.078Z,1003.86
2019-01-26T10:07:17.911Z,1003.91
2019-01-26T10:08:27.221Z,1003.89
2019-01-26T10:09:36.278Z,1003.86
2019-01-26T10:10:45.664Z,1003.91
2019-01-26T10:11:55.900Z,1003.89
2019-01-26T10:13:04.800Z,1003.9
2019-01-26T10:14:14.390Z,1003.85
2019-01-26T10:15:23.723Z,1003.8
2019-01-26T10:16:33.325Z,1003.88
2019-01-26T10:17:45.851Z,1003.85
2019-01-26T10:18:56.305Z,1003.86
2019-01-26T10:20:05.087Z,1003.87
2019-01-26T10:21:14.506Z,1003.91
2019-01-26T10:22:23.313Z,1003.89
2019-01-26T10:23:33.159Z,1003.92
2019-01-26T10:24:42.483Z,1003.78
2019-01-26T10:25:51.615Z,1003.88
2019-01-26T10:27:00.660Z,1003.97
2019-01-26T10:28:10.222Z,1003.79
2019-01-26T10:29:19.256Z,1003.91
2019-01-26T10:30:28.066Z,1003.84
2019-01-26T10:31:37.407Z,1003.77
2019-01-26T10:32:47.159Z,1003.84
2019-01-26T10:33:56.568Z,1003.9
2019-01-26T10:35:06.533Z,1003.84
2019-01-26T10:36:15.906Z,1003.83
2019-01-26T10:37:25.317Z,1003.83
2019-01-26T10:38:34.915Z,1003.82
2019-01-26T10:39:44.035Z,1003.78
2019-01-26T10:40:53.164Z,1003.74
2019-01-26T10:42:02.851Z,1003.74
2019-01-26T10:43:12.680Z,1003.75
2019-01-26T10:44:22.571Z,1003.72
2019-01-26T10:45:31.667Z,1003.68
2019-01-26T10:46:41.217Z,1003.73
2019-01-26T10:47:50.336Z,1003.72
2019-01-26T10:49:00.705Z,1003.63
2019-01-26T10:50:09.987Z,1003.61
2019-01-26T10:51:19.493Z,1003.56
2019-01-26T10:52:28.525Z,1003.52
2019-01-26T10:53:38.100Z,1003.57
2019-01-26T10:54:47.631Z,1003.54
2019-01-26T10:55:57.414Z,1003.54
2019-01-26T10:57:06.652Z,1003.47
2019-01-26T10:58:16.186Z,1003.47
2019-01-26T10:59:26.076Z,1003.53
2019-01-26T11:00:35.631Z,1003.52
2019-01-26T11:01:44.938Z,1003.52
2019-01-26T11:02:54.234Z,1003.51
2019-01-26T11:04:03.508Z,1003.44
2019-01-26T11:05:13.371Z,1003.44
2019-01-26T11:06:22.960Z,1003.48
2019-01-26T11:07:31.761Z,1003.51
2019-01-26T11:08:41.107Z,1003.49
2019-01-26T11:09:49.905Z,1003.47
2019-01-26T11:10:59.519Z,1003.39
2019-01-26T11:12:08.901Z,1003.42
2019-01-26T11:13:18.001Z,1003.39
2019-01-26T11:14:27.080Z,1003.47
2019-01-26T11:15:36.633Z,1003.38
2019-01-26T11:16:45.436Z,1003.35
2019-01-26T11:17:54.469Z,1003.38
2019-01-26T11:19:07.910Z,1003.46
2019-01-26T11:20:18.139Z,1003.35
2019-01-26T11:21:27.236Z,1003.37
2019-01-26T11:22:36.861Z,1003.37
2019-01-26T11:23:46.110Z,1003.33
2019-01-26T11:24:55.518Z,1003.4
2019-01-26T11:26:04.598Z,1003.3
2019-01-26T11:27:13.641Z,1003.33
2019-01-26T11:28:22.497Z,1003.3
2019-01-26T11:29:31.899Z,1003.35
2019-01-26T11:30:41.243Z,1003.34
2019-01-26T11:31:50.817Z,1003.3
2019-01-26T11:33:00.181Z,1003.24
2019-01-26T11:34:09.225Z,1003.26
2019-01-26T11:35:18.015Z,1003.24
2019-01-26T11:36:27.410Z,1003.21
2019-01-26T11:37:37.255Z,1003.16
2019-01-26T11:38:46.859Z,1003.19
2019-01-26T11:39:56.152Z,1003.14
2019-01-26T11:41:05.692Z,1003.11
2019-01-26T11:42:14.783Z,1003.09
2019-01-26T11:43:24.071Z,1003.07
2019-01-26T11:44:33.168Z,1003.04
2019-01-26T11:45:42.696Z,1003.09
2019-01-26T11:46:52.046Z,1002.99
2019-01-26T11:48:01.337Z,1003.01
2019-01-26T11:49:15.133Z,1003
2019-01-26T11:50:24.569Z,1002.93
2019-01-26T11:51:34.132Z,1002.93
2019-01-26T11:52:43.769Z,1002.87
2019-01-26T11:53:53.405Z,1002.88
2019-01-26T11:55:02.794Z,1002.9
2019-01-26T11:56:12.384Z,1002.86
2019-01-26T11:57:21.499Z,1002.86
2019-01-26T11:58:30.957Z,1002.84
2019-01-26T11:59:40.599Z,1002.84
2019-01-26T12:00:50.274Z,1002.8
2019-01-26T12:02:06.935Z,1002.74
2019-01-26T12:03:16.095Z,1002.74
2019-01-26T12:04:25.723Z,1002.73
2019-01-26T12:05:35.299Z,1002.76
2019-01-26T12:06:44.408Z,1002.76
2019-01-26T12:07:53.669Z,1002.74
2019-01-26T12:09:02.827Z,1002.69
2019-01-26T12:10:12.460Z,1002.69
2019-01-26T12:11:22.243Z,1002.63
2019-01-26T12:12:32.221Z,1002.58
2019-01-26T12:13:41.488Z,1002.55
2019-01-26T12:14:50.883Z,1002.59
2019-01-26T12:16:00.359Z,1002.58
2019-01-26T12:17:09.474Z,1002.55
2019-01-26T12:18:19.034Z,1002.49
2019-01-26T12:19:28.392Z,1002.48
2019-01-26T12:20:37.718Z,1002.49
2019-01-26T12:21:46.781Z,1002.47
2019-01-26T12:22:56.153Z,1002.46
2019-01-26T12:24:05.475Z,1002.46
2019-01-26T12:25:14.808Z,1002.43
2019-01-26T12:26:24.482Z,1002.44
2019-01-26T12:27:33.813Z,1002.43
2019-01-26T12:28:43.676Z,1002.39
2019-01-26T12:29:53.541Z,1002.39
2019-01-26T12:31:03.144Z,1002.38
2019-01-26T12:32:12.712Z,1002.43
2019-01-26T12:33:21.897Z,1002.36
2019-01-26T12:34:31.735Z,1002.3
2019-01-26T12:35:40.833Z,1002.34
2019-01-26T12:36:51.452Z,1002.34
2019-01-26T12:38:01.320Z,1002.35
2019-01-26T12:39:10.133Z,1002.36
2019-01-26T12:40:19.939Z,1002.32
2019-01-26T12:41:29.471Z,1002.31
2019-01-26T12:42:39.125Z,1002.33
2019-01-26T12:43:49.347Z,1002.21
2019-01-26T12:45:03.854Z,1002.25
2019-01-26T12:46:13.111Z,1002.28
2019-01-26T12:47:22.848Z,1002.25
2019-01-26T12:48:32.549Z,1002.21
2019-01-26T12:49:42.013Z,1002.19
2019-01-26T12:50:51.348Z,1002.18
2019-01-26T12:52:02.425Z,1002.19
2019-01-26T12:53:13.517Z,1002.21
2019-01-26T12:54:23.072Z,1002.26
2019-01-26T12:55:35.159Z,1002.26
2019-01-26T12:56:44.803Z,1002.23
2019-01-26T12:57:54.225Z,1002.17
2019-01-26T12:59:03.648Z,1002.18
2019-01-26T13:00:13.722Z,1002.17
2019-01-26T13:01:23.970Z,1002.17
2019-01-26T13:02:34.315Z,1002.1
2019-01-26T13:03:43.702Z,1002.13
2019-01-26T13:04:53.350Z,1002.1
2019-01-26T13:06:03.645Z,1002.07
2019-01-26T13:07:13.032Z,1002.09
2019-01-26T13:08:23.198Z,1002
2019-01-26T13:09:34.312Z,1002
2019-01-26T13:10:45.021Z,1001.99
2019-01-26T13:12:00.745Z,1001.91
2019-01-26T13:13:10.331Z,1001.91
2019-01-26T13:14:19.424Z,1001.89
2019-01-26T13:15:29.383Z,1001.87
2019-01-26T13:16:44.690Z,1001.82
2019-01-26T13:17:54.691Z,1001.82
2019-01-26T13:19:09.133Z,1001.79
2019-01-26T13:20:18.704Z,1001.76
2019-01-26T13:21:28.881Z,1001.79
2019-01-26T13:22:41.476Z,1001.76
2019-01-26T13:23:52.557Z,1001.76
2019-01-26T13:25:04.041Z,1001.73
2019-01-26T13:26:17.690Z,1001.71
2019-01-26T13:27:27.732Z,1001.67
2019-01-26T13:28:37.078Z,1001.6
2019-01-26T13:29:46.587Z,1001.58
2019-01-26T13:30:57.239Z,1001.56
2019-01-26T13:32:11.051Z,1001.54
2019-01-26T13:33:21.217Z,1001.51
2019-01-26T13:34:35.459Z,1001.48
2019-01-26T13:35:48.348Z,1001.4
2019-01-26T13:36:58.806Z,1001.43
2019-01-26T13:38:16.945Z,1001.39
2019-01-26T13:39:27.124Z,1001.36
2019-01-26T13:40:37.371Z,1001.33
2019-01-26T13:41:46.925Z,1001.3
2019-01-26T13:42:56.839Z,1001.27
2019-01-26T13:44:06.071Z,1001.25
2019-01-26T13:45:15.496Z,1001.25
2019-01-26T13:46:25.602Z,1001.22
2019-01-26T13:47:40.053Z,1001.22
2019-01-26T13:48:52.191Z,1001.19
2019-01-26T13:50:06.151Z,1001.18
2019-01-26T13:51:17.072Z,1001.16
2019-01-26T13:52:26.992Z,1001.14
2019-01-26T13:53:36.852Z,1001.14
2019-01-26T13:54:48.481Z,1001.12
2019-01-26T13:56:00.009Z,1001.14
2019-01-26T13:57:13.041Z,1001.09
2019-01-26T13:58:23.101Z,1001.11
2019-01-26T13:59:36.828Z,1001.14
2019-01-26T14:00:46.040Z,1001.13
2019-01-26T14:01:55.503Z,1001.08
2019-01-26T14:03:05.927Z,1001.08
2019-01-26T14:04:15.330Z,1001.13
2019-01-26T14:05:24.449Z,1001.1